KSHV

Shreveport Regional Airport

Airport
ICAO code
KSHV
Summary
ICAO Region
NAM
ICAO Territory
Location

Shreveport, Louisiana,

Coordinates
32° 26' 41" N , 93° 49' 32" W
KCC
Metar
KSHV 240656Z 24003KT 10SM CLR 10/03 A3006 RMK SLPNO

Description

Shreveport Regional Airport is a public use airport located 7 km southwest of the central business district of Shreveport, Louisiana.

Climatology

Humid “subtropical” climate (Köppen climate classification Cfa) - characterized by hot, humid summers and cool winters. Significant amounts of precipitation occur in all seasons in most areas. Winter rainfall (and sometimes snowfall) is associated with large storms that the westerlies steer from west to east. Most summer rainfall occurs during thunderstorms and occasional tropical storms (hurricanes).

Runways

Designator Length Width Surface Rops
5/23 1890 46 ASP Yes/Yes
14/32 2545 61 ASP Yes/Yes

Airport map

Aerial View

SKYbrary Partners:

Safety knowledge contributed by: